createdAt,value
2023-01-15T00:01:46.525Z,99443.19
2023-01-15T00:04:13.748Z,99442.75
2023-01-15T00:06:42.575Z,99438.63
2023-01-15T00:09:14.643Z,99437.47
2023-01-15T00:11:41.928Z,99443.19
2023-01-15T00:14:10.662Z,99436.91
2023-01-15T00:16:37.619Z,99444.38
2023-01-15T00:19:04.600Z,99435.00
2023-01-15T00:21:32.148Z,99432.34
2023-01-15T00:24:17.462Z,99440.25
2023-01-15T00:27:03.169Z,99428.09
2023-01-15T00:29:34.315Z,99433.00
2023-01-15T00:32:05.927Z,99446.41
2023-01-15T00:34:33.934Z,99453.31
2023-01-15T00:37:02.272Z,99449.66
2023-01-15T00:39:29.200Z,99451.69
2023-01-15T00:41:56.761Z,99450.09
2023-01-15T00:44:24.056Z,99456.19
2023-01-15T00:46:52.384Z,99452.72
2023-01-15T00:49:19.501Z,99459.25
2023-01-15T00:51:47.422Z,99464.75
2023-01-15T00:54:14.322Z,99463.22
2023-01-15T00:56:41.204Z,99459.59
2023-01-15T00:59:08.239Z,99468.09
2023-01-15T01:01:35.252Z,99470.31
2023-01-15T01:04:03.697Z,99461.16
2023-01-15T01:06:30.591Z,99465.63
2023-01-15T01:08:57.719Z,99471.91
2023-01-15T01:11:26.921Z,99472.53
2023-01-15T01:13:55.094Z,99472.94
2023-01-15T01:16:27.027Z,99463.41
2023-01-15T01:18:54.686Z,99473.19
2023-01-15T01:21:23.257Z,99483.50
2023-01-15T01:23:50.183Z,99480.28
2023-01-15T01:26:17.402Z,99479.81
2023-01-15T01:28:49.079Z,99485.09
2023-01-15T01:31:16.566Z,99474.28
2023-01-15T01:33:43.736Z,99479.38
2023-01-15T01:36:10.944Z,99474.28
2023-01-15T01:38:39.247Z,99482.84
2023-01-15T01:41:06.184Z,99486.41
2023-01-15T01:43:55.756Z,99480.31
2023-01-15T01:46:23.282Z,99482.94
2023-01-15T01:48:55.667Z,99475.81
2023-01-15T01:51:28.838Z,99471.78
2023-01-15T01:53:59.867Z,99477.25
2023-01-15T01:56:27.779Z,99465.88
2023-01-15T01:58:55.980Z,99466.53
2023-01-15T02:01:25.937Z,99469.00
2023-01-15T02:03:53.951Z,99475.88
2023-01-15T02:06:24.188Z,99484.59
2023-01-15T02:08:51.448Z,99479.53
2023-01-15T02:11:23.869Z,99471.16
2023-01-15T02:14:00.441Z,99486.22
2023-01-15T02:16:39.830Z,99473.22
2023-01-15T02:19:22.545Z,99469.19
2023-01-15T02:22:02.895Z,99474.28
2023-01-15T02:24:45.104Z,99476.91
2023-01-15T02:27:17.924Z,99476.91
2023-01-15T02:30:03.632Z,99489.50
2023-01-15T02:32:40.737Z,99474.69
2023-01-15T02:35:16.925Z,99478.97
2023-01-15T02:37:51.991Z,99476.94
2023-01-15T02:40:22.711Z,99472.47
2023-01-15T02:42:51.600Z,99477.34
2023-01-15T02:45:24.280Z,99478.81
2023-01-15T02:47:54.760Z,99483.25
2023-01-15T02:50:29.817Z,99473.53
2023-01-15T02:53:05.504Z,99481.63
2023-01-15T02:55:39.127Z,99486.91
2023-01-15T02:58:14.762Z,99465.66
2023-01-15T03:00:48.160Z,99467.50
2023-01-15T03:03:25.824Z,99466.69
2023-01-15T03:06:00.760Z,99465.88
2023-01-15T03:08:27.870Z,99470.13
2023-01-15T03:11:06.649Z,99451.66
2023-01-15T03:13:46.767Z,99456.56
2023-01-15T03:16:37.784Z,99458.03
2023-01-15T03:19:22.422Z,99459.84
2023-01-15T03:21:57.687Z,99455.38
2023-01-15T03:24:33.002Z,99455.81
2023-01-15T03:27:01.590Z,99451.41
2023-01-15T03:29:34.553Z,99446.63
2023-01-15T03:32:01.958Z,99443.34
2023-01-15T03:34:38.041Z,99438.00
2023-01-15T03:37:05.082Z,99440.06
2023-01-15T03:39:32.061Z,99429.66
2023-01-15T03:42:14.864Z,99423.34
2023-01-15T03:44:57.005Z,99425.41
2023-01-15T03:47:39.594Z,99433.91
2023-01-15T03:50:17.504Z,99433.97
2023-01-15T03:52:51.654Z,99433.16
2023-01-15T03:55:23.219Z,99427.50
2023-01-15T03:57:56.655Z,99434.78
2023-01-15T04:00:30.834Z,99429.06
2023-01-15T04:03:00.173Z,99430.00
2023-01-15T04:05:30.179Z,99423.31
2023-01-15T04:07:59.765Z,99427.53
2023-01-15T04:10:27.022Z,99424.09
2023-01-15T04:12:53.896Z,99410.91
2023-01-15T04:15:20.931Z,99414.72
2023-01-15T04:17:49.136Z,99408.00
2023-01-15T04:20:16.605Z,99423.97
2023-01-15T04:22:43.583Z,99423.38
2023-01-15T04:25:11.144Z,99413.41
2023-01-15T04:27:38.120Z,99422.72
2023-01-15T04:30:06.774Z,99425.56
2023-01-15T04:32:33.699Z,99434.53
2023-01-15T04:35:01.904Z,99434.09
2023-01-15T04:37:28.783Z,99425.53
2023-01-15T04:39:55.646Z,99421.50
2023-01-15T04:42:41.262Z,99419.63
2023-01-15T04:45:10.051Z,99413.19
2023-01-15T04:47:36.940Z,99417.44
2023-01-15T04:50:06.297Z,99412.53
2023-01-15T04:52:33.203Z,99410.03
2023-01-15T04:55:00.115Z,99417.09
2023-01-15T04:57:28.121Z,99404.75
2023-01-15T04:59:55.320Z,99413.94
2023-01-15T05:02:22.511Z,99398.59
2023-01-15T05:04:50.657Z,99395.22
2023-01-15T05:07:19.868Z,99407.09
2023-01-15T05:09:48.936Z,99400.50
2023-01-15T05:12:15.975Z,99397.78
2023-01-15T05:14:42.887Z,99398.75
2023-01-15T05:17:09.810Z,99393.91
2023-01-15T05:19:36.799Z,99392.16
2023-01-15T05:22:03.723Z,99391.16
2023-01-15T05:24:31.986Z,99396.78
2023-01-15T05:26:59.401Z,99392.31
2023-01-15T05:29:26.591Z,99391.06
2023-01-15T05:31:53.538Z,99389.81
2023-01-15T05:34:20.499Z,99384.56
2023-01-15T05:36:47.441Z,99399.56
2023-01-15T05:39:14.662Z,99381.31
2023-01-15T05:41:51.742Z,99385.41
2023-01-15T05:44:23.146Z,99387.03
2023-01-15T05:46:52.729Z,99397.16
2023-01-15T05:49:22.856Z,99398.31
2023-01-15T05:51:51.461Z,99393.47
2023-01-15T05:54:24.334Z,99406.50
2023-01-15T05:56:53.004Z,99409.47
2023-01-15T05:59:23.380Z,99401.69
2023-01-15T06:01:51.177Z,99409.31
2023-01-15T06:04:21.137Z,99414.59
2023-01-15T06:06:50.358Z,99411.53
2023-01-15T06:09:18.507Z,99409.47
2023-01-15T06:11:46.137Z,99412.69
2023-01-15T06:14:14.953Z,99413.72
2023-01-15T06:16:42.244Z,99407.84
2023-01-15T06:19:12.422Z,99397.28
2023-01-15T06:21:40.043Z,99412.28
2023-01-15T06:24:08.334Z,99400.56
2023-01-15T06:26:35.390Z,99412.53
2023-01-15T06:29:02.244Z,99400.94
2023-01-15T06:31:30.616Z,99410.47
2023-01-15T06:33:57.845Z,99401.31
2023-01-15T06:36:26.796Z,99400.50
2023-01-15T06:38:54.199Z,99404.19
2023-01-15T06:41:42.755Z,99399.50
2023-01-15T06:44:32.763Z,99389.94
2023-01-15T06:47:22.725Z,99397.28
2023-01-15T06:49:52.652Z,99390.38
2023-01-15T06:52:19.587Z,99391.66
2023-01-15T06:54:46.530Z,99402.97
2023-01-15T06:57:13.629Z,99391.66
2023-01-15T06:59:40.621Z,99392.06
2023-01-15T07:02:10.474Z,99381.13
2023-01-15T07:04:37.493Z,99384.25
2023-01-15T07:07:04.793Z,99389.94
2023-01-15T07:09:31.709Z,99386.25
2023-01-15T07:11:58.627Z,99397.44
2023-01-15T07:14:28.081Z,99390.09
2023-01-15T07:16:55.715Z,99381.13
2023-01-15T07:19:23.982Z,99381.59
2023-01-15T07:21:51.049Z,99388.59
2023-01-15T07:24:18.408Z,99396.72
2023-01-15T07:26:46.043Z,99393.13
2023-01-15T07:29:13.577Z,99387.63
2023-01-15T07:31:40.971Z,99379.78
2023-01-15T07:34:08.792Z,99389.88
2023-01-15T07:36:37.026Z,99388.06
2023-01-15T07:39:05.323Z,99391.75
2023-01-15T07:41:51.101Z,99386.94
2023-01-15T07:44:36.568Z,99396.53
2023-01-15T07:47:28.121Z,99403.03
2023-01-15T07:49:56.270Z,99405.66
2023-01-15T07:52:24.519Z,99407.88
2023-01-15T07:54:51.490Z,99403.84
2023-01-15T07:57:21.583Z,99399.63
2023-01-15T07:59:49.461Z,99409.94
2023-01-15T08:02:16.697Z,99414.25
2023-01-15T08:04:43.855Z,99406.75
2023-01-15T08:07:12.793Z,99398.44
2023-01-15T08:09:41.505Z,99403.53
2023-01-15T08:12:29.541Z,99393.56
2023-01-15T08:15:14.832Z,99397.50
2023-01-15T08:17:44.987Z,99413.38
2023-01-15T08:20:16.172Z,99412.13
2023-01-15T08:22:44.327Z,99418.16
2023-01-15T08:25:16.083Z,99400.50
2023-01-15T08:27:43.587Z,99402.78
2023-01-15T08:30:14.118Z,99410.50
2023-01-15T08:32:41.242Z,99402.38
2023-01-15T08:35:09.739Z,99394.16
2023-01-15T08:37:36.932Z,99399.16
2023-01-15T08:40:04.841Z,99383.81
2023-01-15T08:42:33.330Z,99398.78
2023-01-15T08:45:00.239Z,99410.50
2023-01-15T08:47:27.185Z,99403.03
2023-01-15T08:49:54.893Z,99401.63
2023-01-15T08:52:22.063Z,99404.06
2023-01-15T08:54:48.953Z,99403.59
2023-01-15T08:57:15.892Z,99408.88
2023-01-15T08:59:44.166Z,99397.16
2023-01-15T09:02:14.877Z,99406.13
2023-01-15T09:04:42.058Z,99405.56
2023-01-15T09:07:09.079Z,99390.38
2023-01-15T09:09:36.031Z,99406.38
2023-01-15T09:12:03.042Z,99409.22
2023-01-15T09:14:57.861Z,99416.28
2023-01-15T09:17:18.366Z,99409.56
2023-01-15T09:19:46.214Z,99404.88
2023-01-15T09:22:13.409Z,99411.44
2023-01-15T09:24:40.282Z,99416.09
2023-01-15T09:27:07.210Z,99407.16
2023-01-15T09:29:34.097Z,99417.50
2023-01-15T09:32:02.423Z,99409.34
2023-01-15T09:34:30.677Z,99410.50
2023-01-15T09:36:57.541Z,99411.25
2023-01-15T09:39:24.443Z,99409.16
2023-01-15T09:42:18.214Z,99428.00
2023-01-15T09:45:09.061Z,99427.34
2023-01-15T09:47:51.312Z,99423.97
2023-01-15T09:50:34.596Z,99424.94
2023-01-15T09:53:26.375Z,99416.63
2023-01-15T09:55:54.863Z,99417.16
2023-01-15T09:58:33.234Z,99414.53
2023-01-15T10:01:00.771Z,99415.66
2023-01-15T10:03:38.780Z,99414.66
2023-01-15T10:06:15.751Z,99422.66
2023-01-15T10:08:46.252Z,99428.66
2023-01-15T10:11:49.378Z,99425.28
2023-01-15T10:14:39.019Z,99411.97
2023-01-15T10:17:22.270Z,99406.09
2023-01-15T10:19:49.329Z,99413.69
2023-01-15T10:22:34.252Z,99383.94
2023-01-15T10:25:09.287Z,99400.22
2023-01-15T10:27:40.067Z,99394.34
2023-01-15T10:30:16.464Z,99386.13
2023-01-15T10:33:01.930Z,99394.72
2023-01-15T10:35:45.625Z,99380.72
2023-01-15T10:38:26.798Z,99381.28
2023-01-15T10:41:31.840Z,99385.25
2023-01-15T10:44:09.035Z,99368.31
2023-01-15T10:46:40.478Z,99372.63
2023-01-15T10:49:15.409Z,99368.09
2023-01-15T10:51:45.867Z,99383.78
2023-01-15T10:54:25.695Z,99365.25
2023-01-15T10:57:02.152Z,99365.25
2023-01-15T10:59:41.060Z,99334.81
2023-01-15T11:02:25.942Z,99338.34
2023-01-15T11:04:56.194Z,99393.78
2023-01-15T11:07:35.345Z,99413.78
2023-01-15T11:10:11.467Z,99396.97
2023-01-15T11:12:58.890Z,99403.34
2023-01-15T11:15:46.038Z,99400.38
2023-01-15T11:18:42.070Z,99399.19
2023-01-15T11:21:15.251Z,99388.56
2023-01-15T11:23:42.244Z,99391.41
2023-01-15T11:26:19.768Z,99382.09
2023-01-15T11:28:47.370Z,99384.97
2023-01-15T11:31:16.366Z,99371.38
2023-01-15T11:33:55.607Z,99368.31
2023-01-15T11:36:24.773Z,99381.66
2023-01-15T11:38:52.309Z,99359.78
2023-01-15T11:41:47.674Z,99405.13
2023-01-15T11:44:35.889Z,99385.28
2023-01-15T11:47:22.207Z,99389.75
2023-01-15T11:50:11.275Z,99384.44
2023-01-15T11:52:43.424Z,99378.53
2023-01-15T11:55:14.243Z,99384.31
2023-01-15T11:57:43.872Z,99377.88
2023-01-15T12:00:23.089Z,99387.56
2023-01-15T12:02:52.795Z,99373.69
2023-01-15T12:05:23.866Z,99359.84
2023-01-15T12:07:55.245Z,99358.16
2023-01-15T12:10:44.780Z,99341.03
2023-01-15T12:13:31.724Z,99352.34
2023-01-15T12:16:12.064Z,99333.66
2023-01-15T12:18:54.774Z,99330.41
2023-01-15T12:22:04.789Z,99314.22
2023-01-15T12:25:16.378Z,99322.66
2023-01-15T12:28:00.506Z,99303.03
2023-01-15T12:30:44.832Z,99318.81
2023-01-15T12:33:32.328Z,99324.81
2023-01-15T12:36:08.781Z,99320.28
2023-01-15T12:38:49.751Z,99317.69
2023-01-15T12:41:24.338Z,99313.75
2023-01-15T12:44:16.408Z,99327.69
2023-01-15T12:46:45.869Z,99353.00
2023-01-15T12:49:36.785Z,99342.63
2023-01-15T12:52:10.709Z,99356.56
2023-01-15T12:54:48.429Z,99338.16
2023-01-15T12:57:31.188Z,99351.56
2023-01-15T13:00:07.267Z,99345.63
2023-01-15T13:02:52.376Z,99326.56
2023-01-15T13:05:26.171Z,99342.16
2023-01-15T13:08:01.151Z,99331.97
2023-01-15T13:10:36.724Z,99326.00
2023-01-15T13:13:16.706Z,99322.34
2023-01-15T13:16:02.422Z,99321.53
2023-01-15T13:18:43.215Z,99306.03
2023-01-15T13:21:15.281Z,99303.03
2023-01-15T13:24:06.953Z,99301.75
2023-01-15T13:26:54.810Z,99301.28
2023-01-15T13:29:37.826Z,99306.84
2023-01-15T13:32:15.677Z,99296.69
2023-01-15T13:34:49.999Z,99303.72
2023-01-15T13:37:40.836Z,99301.28
2023-01-15T13:40:23.057Z,99315.94
2023-01-15T13:42:52.344Z,99308.19
2023-01-15T13:45:37.132Z,99310.16
2023-01-15T13:48:12.679Z,99325.16
2023-01-15T13:50:52.524Z,99311.97
2023-01-15T13:53:28.650Z,99307.28
2023-01-15T13:56:01.345Z,99301.28
2023-01-15T13:58:31.481Z,99319.00
2023-01-15T14:01:21.573Z,99313.13
2023-01-15T14:04:05.413Z,99328.56
2023-01-15T14:06:43.804Z,99354.34
2023-01-15T14:09:13.869Z,99334.03
2023-01-15T14:12:01.339Z,99322.81
2023-01-15T14:14:55.928Z,99333.84
2023-01-15T14:18:04.138Z,99340.53
2023-01-15T14:21:30.464Z,99336.00
2023-01-15T14:24:40.536Z,99326.47
2023-01-15T14:27:22.211Z,99343.03
2023-01-15T14:30:16.451Z,99325.44
2023-01-15T14:33:00.492Z,99350.09
2023-01-15T14:35:28.906Z,99343.50
2023-01-15T14:38:04.426Z,99332.41
2023-01-15T14:40:35.780Z,99355.50
2023-01-15T14:43:14.610Z,99349.88
2023-01-15T14:45:46.419Z,99356.66
2023-01-15T14:48:20.697Z,99335.09
2023-01-15T14:50:49.864Z,99353.91
2023-01-15T14:53:36.117Z,99367.69
2023-01-15T14:56:16.401Z,99362.25
2023-01-15T14:58:52.595Z,99361.69
2023-01-15T15:01:40.330Z,99388.06
2023-01-15T15:04:21.155Z,99380.72
2023-01-15T15:06:54.015Z,99394.94
2023-01-15T15:09:45.191Z,99417.81
2023-01-15T15:12:33.906Z,99418.38
2023-01-15T15:15:11.037Z,99410.13
2023-01-15T15:17:49.289Z,99422.09
2023-01-15T15:20:26.818Z,99424.00
2023-01-15T15:23:15.475Z,99411.88
2023-01-15T15:25:47.072Z,99411.69
2023-01-15T15:28:15.227Z,99420.41
2023-01-15T15:30:46.118Z,99425.47
2023-01-15T15:33:20.247Z,99426.69
2023-01-15T15:35:52.254Z,99418.03
2023-01-15T15:38:22.919Z,99414.22
2023-01-15T15:40:54.711Z,99418.84
2023-01-15T15:43:52.915Z,99409.31
2023-01-15T15:46:48.106Z,99427.59
2023-01-15T15:49:16.319Z,99446.72
2023-01-15T15:51:49.179Z,99451.81
2023-01-15T15:54:20.300Z,99481.28
2023-01-15T15:56:55.633Z,99492.47
2023-01-15T15:59:31.190Z,99512.34
2023-01-15T16:02:07.504Z,99501.63
2023-01-15T16:04:34.576Z,99505.50
2023-01-15T16:07:12.692Z,99509.34
2023-01-15T16:09:42.583Z,99514.25
2023-01-15T16:12:13.106Z,99523.25
2023-01-15T16:14:42.166Z,99517.41
2023-01-15T16:17:12.026Z,99533.66
2023-01-15T16:19:39.644Z,99535.91
2023-01-15T16:22:07.340Z,99520.34
2023-01-15T16:24:34.592Z,99515.91
2023-01-15T16:27:07.776Z,99526.25
2023-01-15T16:29:36.017Z,99526.66
2023-01-15T16:32:11.923Z,99538.81
2023-01-15T16:34:40.083Z,99529.47
2023-01-15T16:37:26.337Z,99544.06
2023-01-15T16:39:53.787Z,99534.72
2023-01-15T16:42:30.352Z,99541.44
2023-01-15T16:45:01.779Z,99544.47
2023-01-15T16:47:34.557Z,99553.00
2023-01-15T16:50:29.009Z,99550.56
2023-01-15T16:53:00.271Z,99548.75
2023-01-15T16:55:42.005Z,99544.09
2023-01-15T16:58:34.389Z,99560.06
2023-01-15T17:01:23.218Z,99560.06
2023-01-15T17:03:52.170Z,99563.53
2023-01-15T17:06:25.669Z,99574.66
2023-01-15T17:08:55.200Z,99572.63
2023-01-15T17:11:26.239Z,99575.22
2023-01-15T17:14:09.823Z,99565.50
2023-01-15T17:16:56.818Z,99576.63
2023-01-15T17:19:25.773Z,99570.19
2023-01-15T17:21:52.650Z,99578.69
2023-01-15T17:24:19.813Z,99588.00
2023-01-15T17:26:46.951Z,99585.38
2023-01-15T17:29:14.195Z,99593.88
2023-01-15T17:31:46.579Z,99592.44
2023-01-15T17:37:09.480Z,99601.13
2023-01-15T17:39:36.367Z,99599.31
2023-01-15T17:42:18.348Z,99601.53
2023-01-15T17:44:46.658Z,99601.53
2023-01-15T17:47:13.989Z,99592.63
2023-01-15T17:49:41.081Z,99618.97
2023-01-15T17:52:18.898Z,99625.84
2023-01-15T17:55:04.591Z,99618.56
2023-01-15T17:57:50.325Z,99624.44
2023-01-15T18:00:37.776Z,99628.06
2023-01-15T18:03:23.699Z,99626.25
2023-01-15T18:05:51.641Z,99637.00
2023-01-15T18:08:20.078Z,99644.69
2023-01-15T18:10:47.220Z,99651.78
2023-01-15T18:13:14.130Z,99650.16
2023-01-15T18:15:41.361Z,99650.53
2023-01-15T18:18:08.592Z,99654.19
2023-01-15T18:20:35.617Z,99652.19
2023-01-15T18:23:02.847Z,99650.34
2023-01-15T18:25:30.999Z,99659.84
2023-01-15T18:27:57.895Z,99664.69
2023-01-15T18:30:24.706Z,99661.66
2023-01-15T18:32:51.885Z,99665.94
2023-01-15T18:35:19.394Z,99655.00
2023-01-15T18:37:46.252Z,99665.94
2023-01-15T18:40:14.008Z,99659.69
2023-01-15T18:43:01.219Z,99666.75
2023-01-15T18:45:46.571Z,99664.72
2023-01-15T18:48:13.448Z,99671.19
2023-01-15T18:50:40.527Z,99665.75
2023-01-15T18:53:08.488Z,99666.75
2023-01-15T18:55:35.674Z,99667.56
2023-01-15T18:58:03.911Z,99673.22
2023-01-15T19:00:31.074Z,99675.25
2023-01-15T19:02:58.553Z,99675.28
2023-01-15T19:05:25.528Z,99672.44
2023-01-15T19:07:53.678Z,99675.66
2023-01-15T19:10:21.778Z,99674.06
2023-01-15T19:12:49.323Z,99668.38
2023-01-15T19:15:38.464Z,99680.53
2023-01-15T19:18:24.946Z,99671.22
2023-01-15T19:20:51.845Z,99679.72
2023-01-15T19:23:20.502Z,99684.56
2023-01-15T19:25:49.355Z,99676.88
2023-01-15T19:28:20.029Z,99683.56
2023-01-15T19:31:09.808Z,99679.72
2023-01-15T19:33:37.042Z,99681.53
2023-01-15T19:36:05.263Z,99682.53
2023-01-15T19:38:38.534Z,99691.47
2023-01-15T19:41:29.313Z,99699.53
2023-01-15T19:44:14.602Z,99696.72
2023-01-15T19:47:01.753Z,99696.09
2023-01-15T19:49:53.446Z,99704.41
2023-01-15T19:52:36.054Z,99707.25
2023-01-15T19:55:07.551Z,99687.38
2023-01-15T19:57:34.455Z,99707.25
2023-01-15T20:00:01.440Z,99699.75
2023-01-15T20:02:29.660Z,99706.06
2023-01-15T20:04:56.817Z,99713.34
2023-01-15T20:07:23.670Z,99707.25
2023-01-15T20:09:50.522Z,99712.13
2023-01-15T20:12:35.930Z,99710.28
2023-01-15T20:15:02.973Z,99719.81
2023-01-15T20:17:31.222Z,99725.69
2023-01-15T20:19:58.729Z,99719.00
2023-01-15T20:22:26.857Z,99732.34
2023-01-15T20:24:54.089Z,99738.88
2023-01-15T20:27:21.800Z,99739.25
2023-01-15T20:29:55.449Z,99741.88
2023-01-15T20:32:23.188Z,99739.66
2023-01-15T20:34:51.623Z,99737.41
2023-01-15T20:37:18.716Z,99741.25
2023-01-15T20:39:45.860Z,99735.81
2023-01-15T20:42:31.635Z,99736.81
2023-01-15T20:45:02.400Z,99737.66
2023-01-15T20:47:48.052Z,99741.69
2023-01-15T20:50:17.782Z,99740.88
2023-01-15T20:52:46.823Z,99736.00
2023-01-15T20:55:16.076Z,99743.31
2023-01-15T20:57:43.768Z,99736.41
2023-01-15T21:00:14.940Z,99734.41
2023-01-15T21:02:42.245Z,99740.06
2023-01-15T21:05:10.316Z,99744.53
2023-01-15T21:07:39.196Z,99742.50
2023-01-15T21:10:09.739Z,99739.66
2023-01-15T21:12:36.671Z,99736.03
2023-01-15T21:15:05.040Z,99734.41
2023-01-15T21:17:31.964Z,99730.75
2023-01-15T21:19:58.799Z,99736.03
2023-01-15T21:22:25.747Z,99729.34
2023-01-15T21:24:54.364Z,99732.97
2023-01-15T21:27:21.211Z,99724.47
2023-01-15T21:29:48.383Z,99728.50
2023-01-15T21:32:15.505Z,99720.63
2023-01-15T21:34:42.383Z,99715.16
2023-01-15T21:37:09.239Z,99722.66
2023-01-15T21:39:37.769Z,99716.16
2023-01-15T21:42:24.518Z,99720.00
2023-01-15T21:44:51.650Z,99717.78
2023-01-15T21:47:19.427Z,99708.47
2023-01-15T21:49:46.715Z,99719.19
2023-01-15T21:52:17.393Z,99712.72
2023-01-15T21:54:44.872Z,99714.53
2023-01-15T21:57:13.793Z,99719.19
2023-01-15T21:59:41.076Z,99719.41
2023-01-15T22:02:14.897Z,99720.59
2023-01-15T22:04:43.616Z,99719.81
2023-01-15T22:07:10.752Z,99722.06
2023-01-15T22:09:37.681Z,99721.22
2023-01-15T22:12:05.695Z,99715.75
2023-01-15T22:14:34.008Z,99710.91
2023-01-15T22:17:03.643Z,99708.47
2023-01-15T22:19:32.798Z,99709.66
2023-01-15T22:22:03.963Z,99698.31
2023-01-15T22:24:33.596Z,99700.34
2023-01-15T22:27:02.679Z,99695.69
2023-01-15T22:29:34.685Z,99689.59
2023-01-15T22:32:02.318Z,99691.84
2023-01-15T22:34:29.604Z,99686.00
2023-01-15T22:36:56.867Z,99680.53
2023-01-15T22:39:26.477Z,99683.94
2023-01-15T22:42:12.540Z,99684.75
2023-01-15T22:44:43.359Z,99683.75
2023-01-15T22:47:10.525Z,99680.09
2023-01-15T22:49:37.454Z,99680.94
2023-01-15T22:52:05.128Z,99682.72
2023-01-15T22:54:32.087Z,99677.66
2023-01-15T22:56:59.100Z,99671.56
2023-01-15T22:59:26.107Z,99673.78
2023-01-15T23:01:54.421Z,99669.13
2023-01-15T23:04:24.018Z,99677.63
2023-01-15T23:06:51.975Z,99667.50
2023-01-15T23:09:21.780Z,99668.94
2023-01-15T23:11:51.081Z,99667.06
2023-01-15T23:14:20.959Z,99657.75
2023-01-15T23:16:48.163Z,99654.94
2023-01-15T23:19:17.668Z,99646.00
2023-01-15T23:21:44.649Z,99649.25
2023-01-15T23:24:11.865Z,99646.00
2023-01-15T23:26:39.671Z,99642.34
2023-01-15T23:29:06.694Z,99647.63
2023-01-15T23:31:33.914Z,99641.53
2023-01-15T23:34:01.133Z,99642.16
2023-01-15T23:36:29.350Z,99631.44
2023-01-15T23:38:56.252Z,99645.22
2023-01-15T23:41:44.964Z,99632.28
2023-01-15T23:44:34.258Z,99631.69
2023-01-15T23:47:01.458Z,99625.19
2023-01-15T23:49:28.451Z,99635.91
2023-01-15T23:51:57.273Z,99626.16
2023-01-15T23:54:27.331Z,99628.19
2023-01-15T23:56:54.477Z,99628.22
2023-01-15T23:59:21.572Z,99623.34
